Startpagina
METAR-TAF:

METAR-TAF

Vliegvelden :

Billings, Montana, Verenigde Staten

breedte: 45-48-25N, lengte: 108-32-32W, hoogte: 1112 m

Actueel weer

Dit bericht is 57 minuten geleden gemaakt, om 22:53 UTC
Wind 10 kt uit het noordoosten
Temperatuur 12°C
Vochtigheid 40%
Druk 1017 hPa
Zicht: 16.1 km
Weinig wolken op 21000 ft

METAR: KBIL 212253Z 05010KT 10SM FEW210 12/M01 A3004 RMK AO2 SLP182 T01221011

Tijdstip: 17:50 (23:50 UTC)

Verwachting

Dit bericht is 30 minuten geleden gemaakt, om 23:20 UTC
Verwachting geldig van 22 om 00 UTC tot 22 om 24 UTC
Wind 8 kt uit het noordoosten
Zicht: 10 km
Weinig wolken op 21000 ft
Van 22 om 1200 UTC
Wind 7 kt uit het zuidwesten
Zicht: 10 km
Weinig wolken op 20000 ft

TAF: KBIL 212320Z 2200/2224 05008KT P6SM FEW210 FM221200 23007KT P6SM FEW200

Waarnemingen en weersverwachtingen van meer dan 4000 vliegvelden (METAR en TAF).

De beschikbare stations zijn de gele en rode punten op de kaart.

Ga met uw muis naar het station om de naam te zien.

Klik dan om waarnemingen en weersverwachtingen te zien.

kaart wijzigen: klik op de groene knoppen met een zwart kruis om in te zoomen, op de groene knop met een streepje om uit te zoomen of op de groene pijlen voor aangrenzende kaarten.


METAR-TAF: